createdAt,value
2018-09-27T00:00:30.556Z,1018.40
2018-09-27T00:01:30.527Z,1018.35
2018-09-27T00:02:30.501Z,1018.35
2018-09-27T00:03:30.474Z,1018.40
2018-09-27T00:04:30.447Z,1018.35
2018-09-27T00:05:30.420Z,1018.37
2018-09-27T00:06:31.220Z,1018.38
2018-09-27T00:07:30.365Z,1018.40
2018-09-27T00:08:30.338Z,1018.39
2018-09-27T00:09:30.310Z,1018.42
2018-09-27T00:10:30.285Z,1018.44
2018-09-27T00:11:30.257Z,1018.44
2018-09-27T00:12:30.231Z,1018.44
2018-09-27T00:13:30.206Z,1018.40
2018-09-27T00:14:30.175Z,1018.39
2018-09-27T00:15:30.149Z,1018.36
2018-09-27T00:16:30.122Z,1018.39
2018-09-27T00:17:30.098Z,1018.36
2018-09-27T00:18:30.068Z,1018.32
2018-09-27T00:19:30.123Z,1018.40
2018-09-27T00:20:30.015Z,1018.40
2018-09-27T00:21:29.986Z,1018.35
2018-09-27T00:22:29.960Z,1018.27
2018-09-27T00:23:29.932Z,1018.36
2018-09-27T00:24:29.910Z,1018.32
2018-09-27T00:25:29.878Z,1018.34
2018-09-27T00:26:29.851Z,1018.34
2018-09-27T00:27:29.825Z,1018.32
2018-09-27T00:28:29.797Z,1018.33
2018-09-27T00:29:29.771Z,1018.38
2018-09-27T00:30:29.744Z,1018.34
2018-09-27T00:31:29.716Z,1018.34
2018-09-27T00:32:29.690Z,1018.36
2018-09-27T00:33:29.661Z,1018.33
2018-09-27T00:34:29.634Z,1018.38
2018-09-27T00:35:29.667Z,1018.36
2018-09-27T00:36:29.578Z,1018.42
2018-09-27T00:37:29.552Z,1018.42
2018-09-27T00:38:29.527Z,1018.42
2018-09-27T00:39:29.500Z,1018.42
2018-09-27T00:40:29.473Z,1018.45
2018-09-27T00:41:29.443Z,1018.51
2018-09-27T00:42:29.418Z,1018.48
2018-09-27T00:43:29.390Z,1018.46
2018-09-27T00:44:29.364Z,1018.48
2018-09-27T00:45:29.336Z,1018.51
2018-09-27T00:46:29.309Z,1018.48
2018-09-27T00:47:29.279Z,1018.49
2018-09-27T00:48:29.254Z,1018.48
2018-09-27T00:49:29.227Z,1018.47
2018-09-27T00:50:29.201Z,1018.49
2018-09-27T00:51:29.172Z,1018.48
2018-09-27T00:52:29.147Z,1018.49
2018-09-27T00:53:29.120Z,1018.44
2018-09-27T00:54:29.093Z,1018.43
2018-09-27T00:55:29.063Z,1018.45
2018-09-27T00:56:29.041Z,1018.41
2018-09-27T00:57:29.010Z,1018.44
2018-09-27T00:58:28.983Z,1018.45
2018-09-27T00:59:28.956Z,1018.47
2018-09-27T01:00:28.930Z,1018.44
2018-09-27T01:01:28.902Z,1018.45
2018-09-27T01:02:28.876Z,1018.48
2018-09-27T01:03:28.847Z,1018.49
2018-09-27T01:04:28.820Z,1018.50
2018-09-27T01:05:28.793Z,1018.52
2018-09-27T01:06:28.766Z,1018.48
2018-09-27T01:07:28.740Z,1018.50
2018-09-27T01:08:28.713Z,1018.51
2018-09-27T01:09:28.685Z,1018.53
2018-09-27T01:10:28.663Z,1018.56
2018-09-27T01:11:28.631Z,1018.47
2018-09-27T01:12:28.604Z,1018.52
2018-09-27T01:13:28.578Z,1018.50
2018-09-27T01:14:28.550Z,1018.53
2018-09-27T01:15:28.523Z,1018.50
2018-09-27T01:16:28.496Z,1018.49
2018-09-27T01:17:28.468Z,1018.47
2018-09-27T01:18:28.442Z,1018.46
2018-09-27T01:19:28.413Z,1018.52
2018-09-27T01:20:28.386Z,1018.48
2018-09-27T01:21:28.359Z,1018.48
2018-09-27T01:22:28.332Z,1018.46
2018-09-27T01:23:28.305Z,1018.46
2018-09-27T01:24:28.279Z,1018.46
2018-09-27T01:25:28.253Z,1018.50
2018-09-27T01:26:28.225Z,1018.50
2018-09-27T01:27:28.198Z,1018.48
2018-09-27T01:28:28.170Z,1018.42
2018-09-27T01:29:28.145Z,1018.45
2018-09-27T01:30:28.119Z,1018.42
2018-09-27T01:31:28.088Z,1018.46
2018-09-27T01:32:28.061Z,1018.48
2018-09-27T01:33:28.035Z,1018.49
2018-09-27T01:34:28.008Z,1018.48
2018-09-27T01:35:27.980Z,1018.48
2018-09-27T01:36:27.952Z,1018.51
2018-09-27T01:37:27.925Z,1018.51
2018-09-27T01:38:27.900Z,1018.47
2018-09-27T01:39:27.871Z,1018.50
2018-09-27T01:40:27.843Z,1018.54
2018-09-27T01:41:27.822Z,1018.58
2018-09-27T01:42:27.790Z,1018.53
2018-09-27T01:43:27.761Z,1018.53
2018-09-27T01:44:27.736Z,1018.53
2018-09-27T01:45:27.707Z,1018.52
2018-09-27T01:46:27.682Z,1018.55
2018-09-27T01:47:27.653Z,1018.52
2018-09-27T01:48:27.643Z,1018.54
2018-09-27T01:49:27.596Z,1018.61
2018-09-27T01:50:27.572Z,1018.56
2018-09-27T01:51:27.544Z,1018.56
2018-09-27T01:52:27.517Z,1018.50
2018-09-27T01:53:27.491Z,1018.50
2018-09-27T01:54:27.463Z,1018.53
2018-09-27T01:55:27.435Z,1018.47
2018-09-27T01:56:27.409Z,1018.50
2018-09-27T01:57:27.380Z,1018.54
2018-09-27T01:58:27.354Z,1018.49
2018-09-27T01:59:27.329Z,1018.53
2018-09-27T02:00:27.299Z,1018.49
2018-09-27T02:01:27.272Z,1018.50
2018-09-27T02:02:27.249Z,1018.48
2018-09-27T02:03:27.216Z,1018.46
2018-09-27T02:04:27.191Z,1018.45
2018-09-27T02:05:27.164Z,1018.47
2018-09-27T02:06:27.136Z,1018.47
2018-09-27T02:07:27.110Z,1018.47
2018-09-27T02:08:27.083Z,1018.49
2018-09-27T02:09:27.052Z,1018.50
2018-09-27T02:10:27.031Z,1018.48
2018-09-27T02:11:26.999Z,1018.46
2018-09-27T02:12:26.972Z,1018.42
2018-09-27T02:13:26.946Z,1018.43
2018-09-27T02:14:26.919Z,1018.49
2018-09-27T02:15:26.890Z,1018.46
2018-09-27T02:16:26.863Z,1018.46
2018-09-27T02:17:26.837Z,1018.45
2018-09-27T02:18:26.809Z,1018.44
2018-09-27T02:19:26.785Z,1018.45
2018-09-27T02:20:26.754Z,1018.35
2018-09-27T02:21:26.727Z,1018.44
2018-09-27T02:22:26.702Z,1018.44
2018-09-27T02:23:26.673Z,1018.47
2018-09-27T02:24:26.655Z,1018.48
2018-09-27T02:25:26.619Z,1018.46
2018-09-27T02:26:26.591Z,1018.41
2018-09-27T02:27:26.563Z,1018.37
2018-09-27T02:28:26.537Z,1018.40
2018-09-27T02:29:26.511Z,1018.39
2018-09-27T02:30:26.483Z,1018.38
2018-09-27T02:31:26.454Z,1018.38
2018-09-27T02:32:26.428Z,1018.41
2018-09-27T02:33:26.402Z,1018.45
2018-09-27T02:34:26.373Z,1018.43
2018-09-27T02:35:26.348Z,1018.36
2018-09-27T02:36:26.323Z,1018.34
2018-09-27T02:37:26.292Z,1018.27
2018-09-27T02:38:26.262Z,1018.31
2018-09-27T02:39:26.237Z,1018.33
2018-09-27T02:40:26.209Z,1018.35
2018-09-27T02:41:26.182Z,1018.27
2018-09-27T02:42:26.154Z,1018.30
2018-09-27T02:43:26.126Z,1018.32
2018-09-27T02:44:26.100Z,1018.38
2018-09-27T02:45:26.073Z,1018.40
2018-09-27T02:46:26.047Z,1018.39
2018-09-27T02:47:26.020Z,1018.36
2018-09-27T02:48:25.989Z,1018.36
2018-09-27T02:49:25.962Z,1018.38
2018-09-27T02:50:25.936Z,1018.37
2018-09-27T02:51:25.906Z,1018.36
2018-09-27T02:52:25.881Z,1018.42
2018-09-27T02:53:25.853Z,1018.40
2018-09-27T02:54:25.827Z,1018.43
2018-09-27T02:55:25.798Z,1018.44
2018-09-27T02:56:25.771Z,1018.51
2018-09-27T02:57:25.743Z,1018.44
2018-09-27T02:58:25.719Z,1018.41
2018-09-27T02:59:25.690Z,1018.36
2018-09-27T03:00:25.662Z,1018.37
2018-09-27T03:01:25.633Z,1018.37
2018-09-27T03:02:25.606Z,1018.39
2018-09-27T03:03:25.581Z,1018.39
2018-09-27T03:04:25.551Z,1018.39
2018-09-27T03:05:25.527Z,1018.36
2018-09-27T03:06:25.496Z,1018.36
2018-09-27T03:07:25.469Z,1018.34
2018-09-27T03:08:25.444Z,1018.34
2018-09-27T03:09:25.415Z,1018.30
2018-09-27T03:10:25.397Z,1018.27
2018-09-27T03:11:25.358Z,1018.22
2018-09-27T03:12:25.331Z,1018.26
2018-09-27T03:13:25.305Z,1018.30
2018-09-27T03:14:25.279Z,1018.33
2018-09-27T03:15:25.249Z,1018.36
2018-09-27T03:16:25.223Z,1018.32
2018-09-27T03:17:25.197Z,1018.38
2018-09-27T03:18:25.169Z,1018.36
2018-09-27T03:19:25.156Z,1018.35
2018-09-27T03:20:25.113Z,1018.29
2018-09-27T03:21:25.087Z,1018.26
2018-09-27T03:22:25.057Z,1018.31
2018-09-27T03:23:25.030Z,1018.32
2018-09-27T03:24:25.005Z,1018.32
2018-09-27T03:25:24.976Z,1018.28
2018-09-27T03:26:24.949Z,1018.28
2018-09-27T03:27:24.925Z,1018.33
2018-09-27T03:28:24.893Z,1018.33
2018-09-27T03:29:24.869Z,1018.31
2018-09-27T03:30:24.839Z,1018.28
2018-09-27T03:31:24.810Z,1018.24
2018-09-27T03:32:25.760Z,1018.21
2018-09-27T03:33:24.756Z,1018.16
2018-09-27T03:34:24.730Z,1018.14
2018-09-27T03:35:25.262Z,1018.22
2018-09-27T03:36:24.674Z,1018.15
2018-09-27T03:37:24.646Z,1018.12
2018-09-27T03:38:24.621Z,1018.16
2018-09-27T03:39:24.591Z,1018.14
2018-09-27T03:40:24.572Z,1018.13
2018-09-27T03:41:24.536Z,1018.16
2018-09-27T03:42:24.510Z,1018.13
2018-09-27T03:43:24.484Z,1018.16
2018-09-27T03:44:24.454Z,1018.14
2018-09-27T03:45:24.428Z,1018.14
2018-09-27T03:46:24.401Z,1018.15
2018-09-27T03:47:24.373Z,1018.15
2018-09-27T03:48:24.346Z,1018.04
2018-09-27T03:49:24.325Z,1018.05
2018-09-27T03:50:24.294Z,1018.09
2018-09-27T03:51:24.263Z,1018.15
2018-09-27T03:52:24.235Z,1018.10
2018-09-27T03:53:24.209Z,1018.10
2018-09-27T03:54:24.180Z,1018.09
2018-09-27T03:55:24.154Z,1018.08
2018-09-27T03:56:24.127Z,1018.02
2018-09-27T03:57:24.100Z,1018.05
2018-09-27T03:58:24.073Z,1018.06
2018-09-27T03:59:24.047Z,1018.01
2018-09-27T04:00:24.016Z,1017.99
2018-09-27T04:01:23.989Z,1018.00
2018-09-27T04:02:23.965Z,1018.01
2018-09-27T04:03:24.150Z,1018.03
2018-09-27T04:04:23.909Z,1018.05
2018-09-27T04:05:23.882Z,1018.10
2018-09-27T04:06:23.853Z,1018.10
2018-09-27T04:07:23.824Z,1018.07
2018-09-27T04:08:23.796Z,1018.05
2018-09-27T04:09:23.771Z,1017.97
2018-09-27T04:10:23.742Z,1017.98
2018-09-27T04:11:23.715Z,1018.04
2018-09-27T04:12:23.687Z,1018.09
2018-09-27T04:13:23.661Z,1018.08
2018-09-27T04:14:23.633Z,1018.10
2018-09-27T04:15:23.607Z,1018.10
2018-09-27T04:16:23.581Z,1018.09
2018-09-27T04:17:23.554Z,1018.07
2018-09-27T04:18:23.525Z,1018.06
2018-09-27T04:19:23.495Z,1018.03
2018-09-27T04:20:23.472Z,1017.98
2018-09-27T04:21:23.442Z,1018.00
2018-09-27T04:22:23.419Z,1017.94
2018-09-27T04:23:23.388Z,1018.02
2018-09-27T04:24:23.361Z,1017.92
2018-09-27T04:25:23.334Z,1017.97
2018-09-27T04:26:23.309Z,1018.01
2018-09-27T04:27:23.281Z,1017.99
2018-09-27T04:28:23.258Z,1018.01
2018-09-27T04:29:23.225Z,1017.98
2018-09-27T04:30:23.195Z,1017.96
2018-09-27T04:31:23.170Z,1017.95
2018-09-27T04:32:23.142Z,1017.95
2018-09-27T04:33:23.116Z,1017.93
2018-09-27T04:34:23.089Z,1017.95
2018-09-27T04:35:23.061Z,1017.95
2018-09-27T04:36:23.034Z,1018.03
2018-09-27T04:37:23.006Z,1018.06
2018-09-27T04:38:22.979Z,1018.04
2018-09-27T04:39:22.953Z,1018.10
2018-09-27T04:40:22.926Z,1018.03
2018-09-27T04:41:22.899Z,1018.04
2018-09-27T04:42:22.869Z,1018.06
2018-09-27T04:43:22.843Z,1018.07
2018-09-27T04:44:22.817Z,1018.06
2018-09-27T04:45:22.790Z,1018.07
2018-09-27T04:46:22.763Z,1018.04
2018-09-27T04:47:22.736Z,1018.05
2018-09-27T04:48:22.706Z,1018.06
2018-09-27T04:49:22.680Z,1018.04
2018-09-27T04:50:22.653Z,1018.12
2018-09-27T04:51:22.626Z,1018.12
2018-09-27T04:52:22.600Z,1018.08
2018-09-27T04:53:22.572Z,1018.12
2018-09-27T04:54:22.571Z,1018.16
2018-09-27T04:55:22.518Z,1018.13
2018-09-27T04:56:22.490Z,1018.16
2018-09-27T04:57:22.464Z,1018.16
2018-09-27T04:58:22.437Z,1018.10
2018-09-27T04:59:22.410Z,1018.12
2018-09-27T05:00:29.800Z,1018.15
2018-09-27T05:02:15.213Z,1018.11
2018-09-27T05:03:15.161Z,1018.19
2018-09-27T05:05:07.972Z,1018.19
2018-09-27T05:06:07.939Z,1018.20
2018-09-27T05:07:07.914Z,1018.16
2018-09-27T05:08:07.886Z,1018.15
2018-09-27T05:09:07.860Z,1018.20
2018-09-27T05:10:07.833Z,1018.24
2018-09-27T05:11:07.806Z,1018.23
2018-09-27T05:12:07.780Z,1018.19
2018-09-27T05:13:07.751Z,1018.14
2018-09-27T05:14:07.726Z,1018.19
2018-09-27T05:15:07.696Z,1018.14
2018-09-27T05:16:07.728Z,1018.10
2018-09-27T05:17:07.645Z,1018.19
2018-09-27T05:18:07.616Z,1018.18
2018-09-27T05:19:07.590Z,1018.18
2018-09-27T05:20:07.564Z,1018.22
2018-09-27T05:21:07.543Z,1018.25
2018-09-27T05:22:07.509Z,1018.22
2018-09-27T05:23:07.481Z,1018.26
2018-09-27T05:24:07.455Z,1018.21
2018-09-27T05:25:07.428Z,1018.17
2018-09-27T05:26:07.402Z,1018.21
2018-09-27T05:27:07.378Z,1018.23
2018-09-27T05:28:07.345Z,1018.18
2018-09-27T05:29:07.318Z,1018.22
2018-09-27T05:30:07.296Z,1018.23
2018-09-27T05:31:07.272Z,1018.26
2018-09-27T05:32:07.239Z,1018.27
2018-09-27T05:33:07.213Z,1018.27
2018-09-27T05:34:07.182Z,1018.30
2018-09-27T05:35:07.154Z,1018.27
2018-09-27T05:36:07.130Z,1018.26
2018-09-27T05:37:07.107Z,1018.28
2018-09-27T05:38:07.076Z,1018.26
2018-09-27T05:39:07.056Z,1018.24
2018-09-27T05:40:07.024Z,1018.28
2018-09-27T05:41:06.997Z,1018.27
2018-09-27T05:42:06.972Z,1018.29
2018-09-27T05:43:06.945Z,1018.30
2018-09-27T05:44:06.925Z,1018.31
2018-09-27T05:45:06.889Z,1018.29
2018-09-27T05:46:06.862Z,1018.30
2018-09-27T05:47:06.837Z,1018.30
2018-09-27T05:48:06.807Z,1018.34
2018-09-27T05:49:06.784Z,1018.34
2018-09-27T05:50:06.755Z,1018.36
2018-09-27T05:51:06.730Z,1018.36
2018-09-27T05:52:06.699Z,1018.35
2018-09-27T05:53:06.673Z,1018.35
2018-09-27T05:54:06.654Z,1018.37
2018-09-27T05:55:06.649Z,1018.35
2018-09-27T05:56:06.602Z,1018.40
2018-09-27T05:57:06.568Z,1018.37
2018-09-27T05:58:06.539Z,1018.37
2018-09-27T05:59:06.515Z,1018.38
2018-09-27T06:00:06.488Z,1018.35
2018-09-27T06:01:06.512Z,1018.40
2018-09-27T06:02:06.495Z,1018.37
2018-09-27T06:03:06.409Z,1018.34
2018-09-27T06:04:06.379Z,1018.40
2018-09-27T06:05:06.356Z,1018.34
2018-09-27T06:06:06.328Z,1018.43
2018-09-27T06:07:06.300Z,1018.43
2018-09-27T06:08:06.275Z,1018.45
2018-09-27T06:09:06.248Z,1018.46
2018-09-27T06:10:06.221Z,1018.47
2018-09-27T06:11:06.197Z,1018.47
2018-09-27T06:12:06.168Z,1018.48
2018-09-27T06:13:07.083Z,1018.45
2018-09-27T06:14:06.113Z,1018.47
2018-09-27T06:15:06.086Z,1018.46
2018-09-27T06:16:06.082Z,1018.46
2018-09-27T06:17:06.039Z,1018.48
2018-09-27T06:18:06.005Z,1018.51
2018-09-27T06:19:05.980Z,1018.51
2018-09-27T06:20:05.953Z,1018.48
2018-09-27T06:21:05.927Z,1018.50
2018-09-27T06:22:06.582Z,1018.52
2018-09-27T06:23:05.875Z,1018.51
2018-09-27T06:24:05.853Z,1018.53
2018-09-27T06:25:05.822Z,1018.52
2018-09-27T06:26:05.827Z,1018.53
2018-09-27T06:27:05.769Z,1018.49
2018-09-27T06:28:05.740Z,1018.50
2018-09-27T06:29:05.716Z,1018.55
2018-09-27T06:30:05.691Z,1018.56
2018-09-27T06:31:05.661Z,1018.58
2018-09-27T06:32:05.634Z,1018.54
2018-09-27T06:33:05.609Z,1018.61
2018-09-27T06:34:05.581Z,1018.55
2018-09-27T06:35:05.625Z,1018.59
2018-09-27T06:36:05.528Z,1018.57
2018-09-27T06:37:05.501Z,1018.57
2018-09-27T06:38:05.476Z,1018.58
2018-09-27T06:39:05.452Z,1018.57
2018-09-27T06:40:05.423Z,1018.58
2018-09-27T06:41:05.397Z,1018.63
2018-09-27T06:42:05.370Z,1018.58
2018-09-27T06:43:05.345Z,1018.60
2018-09-27T06:44:05.340Z,1018.56
2018-09-27T06:45:05.290Z,1018.60
2018-09-27T06:46:05.269Z,1018.54
2018-09-27T06:47:05.239Z,1018.52
2018-09-27T06:48:05.211Z,1018.55
2018-09-27T06:49:05.187Z,1018.49
2018-09-27T06:50:05.158Z,1018.49
2018-09-27T06:51:05.133Z,1018.51
2018-09-27T06:52:05.111Z,1018.48
2018-09-27T06:53:05.080Z,1018.48
2018-09-27T06:54:05.053Z,1018.48
2018-09-27T06:55:05.706Z,1018.49
2018-09-27T06:56:05.015Z,1018.50
2018-09-27T06:57:04.977Z,1018.50
2018-09-27T06:58:04.950Z,1018.49
2018-09-27T06:59:04.923Z,1018.53
2018-09-27T07:00:04.899Z,1018.57
2018-09-27T07:01:04.878Z,1018.54
2018-09-27T07:02:04.845Z,1018.57
2018-09-27T07:03:04.822Z,1018.59
2018-09-27T07:04:04.793Z,1018.58
2018-09-27T07:05:04.768Z,1018.63
2018-09-27T07:06:04.739Z,1018.62
2018-09-27T07:07:04.723Z,1018.60
2018-09-27T07:08:04.694Z,1018.62
2018-09-27T07:09:04.664Z,1018.60
2018-09-27T07:10:04.638Z,1018.66
2018-09-27T07:11:04.610Z,1018.66
2018-09-27T07:12:04.697Z,1018.67
2018-09-27T07:13:04.559Z,1018.72
2018-09-27T07:14:04.530Z,1018.68
2018-09-27T07:15:04.514Z,1018.71
2018-09-27T07:16:04.481Z,1018.67
2018-09-27T07:17:04.456Z,1018.68
2018-09-27T07:18:04.430Z,1018.73
2018-09-27T07:19:04.402Z,1018.71
2018-09-27T07:20:04.378Z,1018.74
2018-09-27T07:21:04.352Z,1018.76
2018-09-27T07:22:04.325Z,1018.74
2018-09-27T07:23:04.300Z,1018.76
2018-09-27T07:24:04.278Z,1018.71
2018-09-27T07:25:04.282Z,1018.70
2018-09-27T07:26:04.224Z,1018.68
2018-09-27T07:27:04.268Z,1018.71
2018-09-27T07:28:04.173Z,1018.71
2018-09-27T07:29:04.148Z,1018.72
2018-09-27T07:30:04.209Z,1018.68
2018-09-27T07:31:04.167Z,1018.72
2018-09-27T07:32:04.077Z,1018.77
2018-09-27T07:33:04.048Z,1018.75
2018-09-27T07:34:04.022Z,1018.71
2018-09-27T07:35:03.996Z,1018.70
2018-09-27T07:36:03.971Z,1018.74
2018-09-27T07:37:03.947Z,1018.76
2018-09-27T07:38:03.921Z,1018.77
2018-09-27T07:39:03.898Z,1018.79
2018-09-27T07:40:03.872Z,1018.76
2018-09-27T07:41:03.849Z,1018.79
2018-09-27T07:42:03.824Z,1018.78
2018-09-27T07:43:03.798Z,1018.78
2018-09-27T07:44:03.772Z,1018.77
2018-09-27T07:45:03.749Z,1018.76
2018-09-27T07:46:03.723Z,1018.83
2018-09-27T07:47:03.698Z,1018.83
2018-09-27T07:48:03.673Z,1018.82
2018-09-27T07:49:03.652Z,1018.85
2018-09-27T07:50:03.626Z,1018.85
2018-09-27T07:51:03.601Z,1018.91
2018-09-27T07:52:03.576Z,1018.87
2018-09-27T07:53:03.554Z,1018.88
2018-09-27T07:54:03.526Z,1018.88
2018-09-27T07:55:03.502Z,1018.84
2018-09-27T07:56:03.478Z,1018.89
2018-09-27T07:57:03.455Z,1018.85
2018-09-27T07:58:03.431Z,1018.85
2018-09-27T07:59:03.410Z,1018.83
2018-09-27T08:00:03.400Z,1018.90
2018-09-27T08:01:03.360Z,1018.91
2018-09-27T08:02:03.337Z,1018.86
2018-09-27T08:03:03.443Z,1018.89
2018-09-27T08:04:03.333Z,1018.96
2018-09-27T08:05:03.261Z,1018.92
2018-09-27T08:06:03.235Z,1018.98
2018-09-27T08:07:03.221Z,1018.94
2018-09-27T08:08:03.189Z,1018.93
2018-09-27T08:09:03.163Z,1018.92
2018-09-27T08:10:03.137Z,1018.97
2018-09-27T08:11:03.161Z,1018.96
2018-09-27T08:12:03.135Z,1019.00
2018-09-27T08:13:03.066Z,1019.01
2018-09-27T08:14:03.040Z,1019.02
2018-09-27T08:15:03.016Z,1019.01
2018-09-27T08:16:02.991Z,1019.01
2018-09-27T08:17:02.973Z,1019.03
2018-09-27T08:18:02.944Z,1019.06
2018-09-27T08:19:02.919Z,1019.06
2018-09-27T08:20:02.895Z,1019.06
2018-09-27T08:21:02.953Z,1019.03
2018-09-27T08:22:02.843Z,1019.07
2018-09-27T08:23:02.821Z,1019.06
2018-09-27T08:24:02.855Z,1019.12
2018-09-27T08:25:02.773Z,1019.10
2018-09-27T08:26:02.748Z,1019.08
2018-09-27T08:27:02.722Z,1019.08
2018-09-27T08:28:02.696Z,1019.04
2018-09-27T08:29:02.666Z,1019.06
2018-09-27T08:30:02.655Z,1019.06
2018-09-27T08:31:02.679Z,1019.07
2018-09-27T08:32:02.599Z,1019.07
2018-09-27T08:33:02.573Z,1019.07
2018-09-27T08:34:02.544Z,1019.08
2018-09-27T08:35:02.522Z,1019.13
2018-09-27T08:36:02.496Z,1019.04
2018-09-27T08:37:02.477Z,1018.98
2018-09-27T08:38:02.446Z,1018.99
2018-09-27T08:39:02.419Z,1019.01
2018-09-27T08:40:02.394Z,1019.02
2018-09-27T08:41:02.375Z,1019.00
2018-09-27T08:42:02.361Z,1019.07
2018-09-27T08:43:02.329Z,1019.05
2018-09-27T08:44:02.301Z,1019.02
2018-09-27T08:45:02.543Z,1019.04
2018-09-27T08:46:02.250Z,1019.05
2018-09-27T08:47:02.227Z,1019.00
2018-09-27T08:48:02.277Z,1019.00
2018-09-27T08:49:02.181Z,1018.98
2018-09-27T08:50:02.154Z,1019.00
2018-09-27T08:51:02.130Z,1019.01
2018-09-27T08:52:02.105Z,1019.02
2018-09-27T08:53:02.083Z,1019.03
2018-09-27T08:54:02.056Z,1019.00
2018-09-27T08:55:02.039Z,1019.04
2018-09-27T08:56:02.074Z,1019.00
2018-09-27T08:57:01.985Z,1019.01
2018-09-27T08:58:01.962Z,1019.00
2018-09-27T08:59:01.940Z,1019.00
2018-09-27T09:00:01.920Z,1018.98
2018-09-27T09:01:01.893Z,1018.94
2018-09-27T09:02:01.867Z,1018.95
2018-09-27T09:03:01.847Z,1018.96
2018-09-27T09:04:01.924Z,1018.92
2018-09-27T09:05:01.800Z,1018.93
2018-09-27T09:06:01.774Z,1018.93
2018-09-27T09:07:01.752Z,1018.95
2018-09-27T09:08:01.728Z,1018.95
2018-09-27T09:09:01.708Z,1018.94
2018-09-27T09:10:01.682Z,1018.94
2018-09-27T09:11:01.661Z,1018.91
2018-09-27T09:12:01.676Z,1018.91
2018-09-27T09:13:01.615Z,1018.89
2018-09-27T09:14:01.591Z,1018.91
2018-09-27T09:15:01.570Z,1018.89
2018-09-27T09:16:01.553Z,1018.89
2018-09-27T09:17:01.528Z,1018.91
2018-09-27T09:18:01.498Z,1018.91
2018-09-27T09:19:01.482Z,1018.94
2018-09-27T09:20:01.457Z,1018.97
2018-09-27T09:21:01.439Z,1018.97
2018-09-27T09:22:01.418Z,1018.87
2018-09-27T09:23:01.393Z,1018.89
2018-09-27T09:24:01.376Z,1018.89
2018-09-27T09:25:01.352Z,1018.90
2018-09-27T09:26:01.372Z,1018.90
2018-09-27T09:27:01.299Z,1018.92
2018-09-27T09:28:01.279Z,1018.89
2018-09-27T09:29:01.285Z,1018.93
2018-09-27T09:30:01.352Z,1018.90
2018-09-27T09:31:01.216Z,1018.86
2018-09-27T09:32:01.190Z,1018.81
2018-09-27T09:33:01.169Z,1018.84
2018-09-27T09:34:01.147Z,1018.80
2018-09-27T09:35:01.172Z,1018.80
2018-09-27T09:36:01.112Z,1018.83
2018-09-27T09:37:01.079Z,1018.81
2018-09-27T09:38:01.055Z,1018.81
2018-09-27T09:39:01.042Z,1018.74
2018-09-27T09:40:01.013Z,1018.72
2018-09-27T09:41:00.991Z,1018.73
2018-09-27T09:42:00.966Z,1018.75
2018-09-27T09:43:00.946Z,1018.73
2018-09-27T09:44:00.924Z,1018.75
2018-09-27T09:45:00.910Z,1018.68
2018-09-27T09:46:01.624Z,1018.66
2018-09-27T09:47:00.860Z,1018.67
2018-09-27T09:48:00.913Z,1018.61
2018-09-27T09:49:00.821Z,1018.64
2018-09-27T09:50:00.802Z,1018.67
2018-09-27T09:51:00.768Z,1018.61
2018-09-27T09:52:00.746Z,1018.64
2018-09-27T09:53:00.723Z,1018.60
2018-09-27T09:54:00.930Z,1018.59
2018-09-27T09:55:00.680Z,1018.61
2018-09-27T09:56:00.661Z,1018.61
2018-09-27T09:57:00.637Z,1018.61
2018-09-27T09:58:00.617Z,1018.59
2018-09-27T09:59:00.600Z,1018.54
2018-09-27T10:00:00.574Z,1018.52
2018-09-27T10:01:00.553Z,1018.54
2018-09-27T10:02:00.531Z,1018.54
2018-09-27T10:03:00.509Z,1018.57
2018-09-27T10:04:00.487Z,1018.59
2018-09-27T10:05:00.471Z,1018.58
2018-09-27T10:06:00.440Z,1018.61
2018-09-27T10:07:00.423Z,1018.59
2018-09-27T10:08:00.403Z,1018.60
2018-09-27T10:09:00.459Z,1018.57
2018-09-27T10:10:00.362Z,1018.53
2018-09-27T10:11:00.337Z,1018.53
2018-09-27T10:12:00.317Z,1018.56
2018-09-27T10:13:00.296Z,1018.50
2018-09-27T10:14:00.275Z,1018.46
2018-09-27T10:15:00.252Z,1018.48
2018-09-27T10:16:00.233Z,1018.45
2018-09-27T10:17:00.215Z,1018.50
2018-09-27T10:18:00.191Z,1018.47
2018-09-27T10:19:00.173Z,1018.47
2018-09-27T10:20:00.148Z,1018.46
2018-09-27T10:21:00.132Z,1018.48
2018-09-27T10:22:00.162Z,1018.50
2018-09-27T10:23:00.084Z,1018.50
2018-09-27T10:24:00.063Z,1018.53
2018-09-27T10:25:00.045Z,1018.50
2018-09-27T10:26:00.023Z,1018.48
2018-09-27T10:26:59.996Z,1018.48
2018-09-27T10:28:00.009Z,1018.49
2018-09-27T10:28:59.954Z,1018.46
2018-09-27T10:29:59.934Z,1018.46
2018-09-27T10:30:59.912Z,1018.45
2018-09-27T10:31:59.892Z,1018.46
2018-09-27T10:32:59.868Z,1018.49
2018-09-27T10:33:59.868Z,1018.47
2018-09-27T10:34:59.828Z,1018.49
2018-09-27T10:35:59.808Z,1018.51
2018-09-27T10:36:59.785Z,1018.50
2018-09-27T10:37:59.764Z,1018.48
2018-09-27T10:38:59.744Z,1018.49
2018-09-27T10:39:59.721Z,1018.44
2018-09-27T10:40:59.700Z,1018.49
2018-09-27T10:41:59.678Z,1018.43
2018-09-27T10:42:59.661Z,1018.43
2018-09-27T10:43:59.635Z,1018.45
2018-09-27T10:44:59.626Z,1018.40
2018-09-27T10:45:59.596Z,1018.42
2018-09-27T10:46:59.576Z,1018.37
2018-09-27T10:47:59.553Z,1018.38
2018-09-27T10:48:59.533Z,1018.35
2018-09-27T10:49:59.510Z,1018.30
2018-09-27T10:50:59.489Z,1018.30
2018-09-27T10:51:59.469Z,1018.28
2018-09-27T10:52:59.448Z,1018.29
2018-09-27T10:53:59.443Z,1018.27
2018-09-27T10:54:59.409Z,1018.29
2018-09-27T10:55:59.385Z,1018.27
2018-09-27T10:56:59.370Z,1018.26
2018-09-27T10:57:59.349Z,1018.27
2018-09-27T10:58:59.325Z,1018.24
2018-09-27T10:59:59.308Z,1018.22
2018-09-27T11:00:59.285Z,1018.21
2018-09-27T11:01:59.263Z,1018.21
2018-09-27T11:02:59.242Z,1018.15
2018-09-27T11:03:59.273Z,1018.11
2018-09-27T11:04:59.200Z,1018.07
2018-09-27T11:05:59.186Z,1018.02
2018-09-27T11:06:59.157Z,1018.05
2018-09-27T11:07:59.137Z,1018.00
2018-09-27T11:08:59.118Z,1017.99
2018-09-27T11:09:59.097Z,1017.92
2018-09-27T11:10:59.114Z,1017.96
2018-09-27T11:11:59.056Z,1018.00
2018-09-27T11:12:59.033Z,1017.96
2018-09-27T11:13:59.012Z,1017.99
2018-09-27T11:14:58.991Z,1017.98
2018-09-27T11:15:58.970Z,1017.93
2018-09-27T11:16:58.950Z,1017.89
2018-09-27T11:17:58.931Z,1017.92
2018-09-27T11:18:58.907Z,1017.89
2018-09-27T11:19:58.886Z,1017.91
2018-09-27T11:20:58.864Z,1017.92
2018-09-27T11:21:58.877Z,1017.89
2018-09-27T11:22:58.820Z,1017.90
2018-09-27T11:23:58.801Z,1017.86
2018-09-27T11:24:58.781Z,1017.89
2018-09-27T11:25:58.771Z,1017.82
2018-09-27T11:26:58.740Z,1017.80
2018-09-27T11:27:59.649Z,1017.78
2018-09-27T11:28:58.742Z,1017.82
2018-09-27T11:29:58.676Z,1017.75
2018-09-27T11:30:58.653Z,1017.76
2018-09-27T11:31:58.634Z,1017.76
2018-09-27T11:32:58.621Z,1017.76
2018-09-27T11:33:58.592Z,1017.74
2018-09-27T11:34:58.570Z,1017.69
2018-09-27T11:35:58.550Z,1017.69
2018-09-27T11:36:58.530Z,1017.63
2018-09-27T11:37:58.508Z,1017.65
2018-09-27T11:38:59.152Z,1017.61
2018-09-27T11:39:58.465Z,1017.63
2018-09-27T11:40:58.443Z,1017.59
2018-09-27T11:41:58.424Z,1017.63
2018-09-27T11:42:58.496Z,1017.54
2018-09-27T11:43:58.442Z,1017.54
2018-09-27T11:44:58.383Z,1017.56
2018-09-27T11:45:58.409Z,1017.51
2018-09-27T11:46:58.361Z,1017.46
2018-09-27T11:47:58.300Z,1017.45
2018-09-27T11:48:58.324Z,1017.43
2018-09-27T11:49:58.348Z,1017.44
2018-09-27T11:50:58.238Z,1017.41
2018-09-27T11:51:58.219Z,1017.39
2018-09-27T11:52:58.198Z,1017.37
2018-09-27T11:53:58.182Z,1017.31
2018-09-27T11:54:58.217Z,1017.33
2018-09-27T11:55:58.256Z,1017.29
2018-09-27T11:56:58.117Z,1017.28
2018-09-27T11:57:58.100Z,1017.24
2018-09-27T11:58:58.113Z,1017.24
2018-09-27T11:59:58.059Z,1017.24
2018-09-27T12:00:58.266Z,1017.22
2018-09-27T12:01:58.013Z,1017.14
2018-09-27T12:02:58.044Z,1017.14
2018-09-27T12:03:57.974Z,1017.17
2018-09-27T12:04:57.953Z,1017.15
2018-09-27T12:05:58.666Z,1017.03
2018-09-27T12:06:57.914Z,1017.02